EDT,Max TemperatureF,Mean TemperatureF,Min TemperatureF,Max Dew PointF,MeanDew PointF,Min DewpointF,Max Humidity, Mean Humidity, Min Humidity, Max Sea Level PressureIn, Mean Sea Level PressureIn, Min Sea Level PressureIn, Max VisibilityMiles, Mean VisibilityMiles, Min VisibilityMiles, Max Wind SpeedMPH, Mean Wind SpeedMPH, Max Gust SpeedMPH,PrecipitationIn, CloudCover, Events, WindDirDegrees
2013-5-1,77,66,55,51,48,41,74,54,34,30.30,30.26,30.19,10,10,10,14,9,21,0.00,0,,151
2013-5-2,77,65,55,43,35,29,45,34,18,30.35,30.28,30.20,10,10,10,14,8,20,0.00,0,,145
2013-5-3,75,65,55,40,36,32,46,35,24,30.24,30.20,30.14,10,10,10,17,11,29,0.00,0,,148
2013-5-4,72,61,51,40,36,32,63,41,24,30.21,30.16,30.10,10,10,10,15,10,24,0.00,0,,144
2013-5-5,75,62,48,40,34,23,66,38,15,30.16,30.10,30.03,10,10,10,17,7,22,0.00,0,,133
2013-5-6,73,62,50,47,36,24,62,42,26,30.11,30.06,30.01,10,10,10,13,7,17,0.00,1,,126
2013-5-7,75,61,50,53,49,46,86,64,43,30.08,30.03,29.99,10,10,10,10,3,18,0.00,2,,83
2013-5-8,71,61,53,55,52,49,94,77,53,30.01,29.98,29.96,10,8,0,8,2,,0.04,6,Fog-Rain,81
2013-5-9,75,64,53,54,50,35,94,80,25,30.00,29.96,29.93,10,5,0,8,1,,0.01,4,Fog,299
2013-5-10,73,65,57,57,51,42,82,67,53,29.97,29.88,29.80,10,9,1,18,8,25,0.43,5,Rain,183
2013-5-11,53,48,44,45,43,39,87,80,71,29.85,29.82,29.79,10,8,3,18,8,28,0.06,8,Rain,247
2013-5-12,48,40,34,37,31,24,89,66,48,30.07,29.94,29.87,10,10,10,22,12,38,0.00,6,Rain,279
2013-5-13,46,40,32,29,25,21,82,58,42,30.20,30.14,30.06,10,10,8,15,7,20,0.00,3,,304
2013-5-14,53,42,30,35,31,26,85,58,46,30.19,30.06,29.87,10,10,9,15,8,22,0.00,5,,155
2013-5-15,80,65,50,57,47,35,83,55,32,29.85,29.75,29.68,10,10,10,21,10,32,0.06,1,Rain,227
2013-5-16,77,60,44,50,43,36,93,64,25,30.01,29.88,29.77,10,8,2,15,2,22,0.00,0,,306
2013-5-17,70,57,44,46,42,38,85,56,37,30.17,30.12,30.03,10,10,10,9,3,,0.00,1,,42
2013-5-18,77,64,53,50,45,42,69,53,37,30.17,30.12,30.07,10,10,10,10,4,,0.00,1,,94
2013-5-19,81,70,60,61,57,54,81,66,48,30.10,30.03,29.96,10,10,9,12,9,,0.00,2,,157
2013-5-20,86,74,61,65,61,57,87,65,44,30.00,29.95,29.86,10,10,8,14,8,21,0.00,0,,183
2013-5-21,86,76,69,66,63,60,87,66,43,29.91,29.84,29.78,10,9,4,16,9,25,0.00,1,,203
2013-5-22,86,77,66,62,59,54,81,58,41,29.83,29.76,29.69,10,10,6,23,9,32,0.06,2,Rain,208
2013-5-23,72,57,43,61,55,39,90,82,68,30.00,29.82,29.74,10,7,2,21,10,34,0.48,7,Rain,286
2013-5-24,45,40,34,39,34,30,87,72,61,30.32,30.21,30.01,10,10,8,15,10,25,0.03,7,Rain,335
2013-5-25,57,45,33,38,32,28,89,64,37,30.36,30.32,30.27,10,10,8,17,5,24,0.00,0,,302
2013-5-26,63,48,35,39,33,28,89,58,29,30.33,30.29,30.26,10,10,4,12,4,20,0.00,0,,312
2013-5-27,68,50,35,49,38,31,89,64,32,30.29,30.23,30.12,10,10,7,10,3,,0.07,3,Rain,164
2013-5-28,77,64,52,66,60,46,94,84,64,30.10,29.98,29.91,10,6,0,17,10,29,1.43,7,Rain,177
2013-5-29,84,74,66,65,61,57,84,64,49,30.05,29.99,29.92,10,10,10,15,8,22,0.00,3,,228
2013-5-30,84,74,64,69,62,58,88,72,44,30.19,30.12,30.05,10,7,0,18,7,34,1.17,2,Fog-Rain,175
2013-5-31,86,75,64,68,62,60,90,71,44,30.09,30.03,29.96,10,9,2,18,7,28,0.40,3,Rain,204